sensor_id;sensor_type;location;lat;lon;timestamp;P1;durP1;ratioP1;P2;durP2;ratioP2
22318;SDS011;11327;52.334;9.506;2022-09-17T00:00:06;6.17;;;1.55;;
22318;SDS011;11327;52.334;9.506;2022-09-17T00:03:28;7.97;;;2.02;;
22318;SDS011;11327;52.334;9.506;2022-09-17T00:06:50;10.88;;;1.90;;
22318;SDS011;11327;52.334;9.506;2022-09-17T00:10:11;8.83;;;2.12;;
22318;SDS011;11327;52.334;9.506;2022-09-17T00:13:32;7.00;;;1.77;;
22318;SDS011;11327;52.334;9.506;2022-09-17T00:16:53;7.47;;;1.90;;
22318;SDS011;11327;52.334;9.506;2022-09-17T00:20:14;5.50;;;1.77;;
22318;SDS011;11327;52.334;9.506;2022-09-17T00:23:36;7.40;;;1.70;;
22318;SDS011;11327;52.334;9.506;2022-09-17T00:26:57;5.30;;;1.77;;
22318;SDS011;11327;52.334;9.506;2022-09-17T00:30:18;7.70;;;1.45;;
22318;SDS011;11327;52.334;9.506;2022-09-17T00:33:39;9.23;;;1.57;;
22318;SDS011;11327;52.334;9.506;2022-09-17T00:37:00;6.28;;;1.60;;
22318;SDS011;11327;52.334;9.506;2022-09-17T00:40:21;7.30;;;1.60;;
22318;SDS011;11327;52.334;9.506;2022-09-17T00:43:44;5.33;;;1.60;;
22318;SDS011;11327;52.334;9.506;2022-09-17T00:50:52;6.20;;;1.30;;
22318;SDS011;11327;52.334;9.506;2022-09-17T00:54:14;7.50;;;1.45;;
22318;SDS011;11327;52.334;9.506;2022-09-17T00:57:35;7.42;;;1.60;;
22318;SDS011;11327;52.334;9.506;2022-09-17T01:00:56;8.75;;;1.45;;
22318;SDS011;11327;52.334;9.506;2022-09-17T01:04:18;6.08;;;1.45;;
22318;SDS011;11327;52.334;9.506;2022-09-17T01:15:18;8.25;;;2.22;;
22318;SDS011;11327;52.334;9.506;2022-09-17T01:19:16;8.60;;;1.92;;
22318;SDS011;11327;52.334;9.506;2022-09-17T01:37:31;11.38;;;1.92;;
22318;SDS011;11327;52.334;9.506;2022-09-17T01:44:25;9.53;;;2.08;;
22318;SDS011;11327;52.334;9.506;2022-09-17T01:48:04;9.78;;;2.05;;
22318;SDS011;11327;52.334;9.506;2022-09-17T01:51:38;9.98;;;2.05;;
22318;SDS011;11327;52.334;9.506;2022-09-17T01:55:06;10.68;;;1.82;;
22318;SDS011;11327;52.334;9.506;2022-09-17T01:58:35;10.13;;;2.10;;
22318;SDS011;11327;52.334;9.506;2022-09-17T02:05:49;10.35;;;2.27;;
22318;SDS011;11327;52.334;9.506;2022-09-17T02:09:22;7.90;;;2.40;;
22318;SDS011;11327;52.334;9.506;2022-09-17T02:12:48;10.78;;;2.30;;
22318;SDS011;11327;52.334;9.506;2022-09-17T02:16:15;9.93;;;2.02;;
22318;SDS011;11327;52.334;9.506;2022-09-17T02:19:35;10.53;;;2.27;;
22318;SDS011;11327;52.334;9.506;2022-09-17T02:22:58;10.88;;;2.35;;
22318;SDS011;11327;52.334;9.506;2022-09-17T02:26:33;6.20;;;2.15;;
22318;SDS011;11327;52.334;9.506;2022-09-17T02:29:57;12.35;;;2.02;;
22318;SDS011;11327;52.334;9.506;2022-09-17T02:33:18;8.05;;;2.08;;
22318;SDS011;11327;52.334;9.506;2022-09-17T02:36:41;12.88;;;2.12;;
22318;SDS011;11327;52.334;9.506;2022-09-17T02:40:02;9.43;;;2.00;;
22318;SDS011;11327;52.334;9.506;2022-09-17T02:54:29;12.00;;;2.20;;
22318;SDS011;11327;52.334;9.506;2022-09-17T03:04:59;11.68;;;2.10;;
22318;SDS011;11327;52.334;9.506;2022-09-17T03:08:29;9.35;;;1.47;;
22318;SDS011;11327;52.334;9.506;2022-09-17T03:11:57;10.25;;;1.77;;
22318;SDS011;11327;52.334;9.506;2022-09-17T03:15:18;11.60;;;2.35;;
22318;SDS011;11327;52.334;9.506;2022-09-17T03:18:39;13.40;;;1.98;;
22318;SDS011;11327;52.334;9.506;2022-09-17T03:22:00;13.13;;;1.60;;
22318;SDS011;11327;52.334;9.506;2022-09-17T03:25:21;11.45;;;1.72;;
22318;SDS011;11327;52.334;9.506;2022-09-17T03:28:42;10.00;;;1.77;;
22318;SDS011;11327;52.334;9.506;2022-09-17T03:32:03;7.72;;;1.60;;
22318;SDS011;11327;52.334;9.506;2022-09-17T03:35:25;10.98;;;1.67;;
22318;SDS011;11327;52.334;9.506;2022-09-17T03:38:46;7.08;;;1.52;;
22318;SDS011;11327;52.334;9.506;2022-09-17T03:42:07;10.10;;;1.67;;
22318;SDS011;11327;52.334;9.506;2022-09-17T03:45:28;9.18;;;1.60;;
22318;SDS011;11327;52.334;9.506;2022-09-17T03:48:49;11.83;;;1.87;;
22318;SDS011;11327;52.334;9.506;2022-09-17T03:52:10;11.18;;;1.77;;
22318;SDS011;11327;52.334;9.506;2022-09-17T03:55:31;10.28;;;2.52;;
22318;SDS011;11327;52.334;9.506;2022-09-17T03:58:55;11.33;;;1.67;;
22318;SDS011;11327;52.334;9.506;2022-09-17T04:02:21;14.18;;;2.22;;
22318;SDS011;11327;52.334;9.506;2022-09-17T04:05:42;15.28;;;2.17;;
22318;SDS011;11327;52.334;9.506;2022-09-17T04:09:03;18.15;;;2.15;;
22318;SDS011;11327;52.334;9.506;2022-09-17T04:12:25;10.90;;;1.75;;
22318;SDS011;11327;52.334;9.506;2022-09-17T04:15:46;13.75;;;1.90;;
22318;SDS011;11327;52.334;9.506;2022-09-17T04:19:07;13.62;;;1.95;;
22318;SDS011;11327;52.334;9.506;2022-09-17T04:22:28;14.40;;;2.02;;
22318;SDS011;11327;52.334;9.506;2022-09-17T04:25:49;14.05;;;2.12;;
22318;SDS011;11327;52.334;9.506;2022-09-17T04:29:10;14.10;;;2.45;;
22318;SDS011;11327;52.334;9.506;2022-09-17T04:32:31;16.55;;;2.25;;
22318;SDS011;11327;52.334;9.506;2022-09-17T04:35:52;12.47;;;2.05;;
22318;SDS011;11327;52.334;9.506;2022-09-17T04:39:13;16.45;;;2.55;;
22318;SDS011;11327;52.334;9.506;2022-09-17T04:42:34;13.38;;;2.08;;
22318;SDS011;11327;52.334;9.506;2022-09-17T04:45:55;12.45;;;2.12;;
22318;SDS011;11327;52.334;9.506;2022-09-17T04:49:17;15.95;;;2.10;;
22318;SDS011;11327;52.334;9.506;2022-09-17T04:52:41;13.62;;;2.37;;
22318;SDS011;11327;52.334;9.506;2022-09-17T04:56:03;14.20;;;2.35;;
22318;SDS011;11327;52.334;9.506;2022-09-17T04:59:24;9.38;;;1.77;;
22318;SDS011;11327;52.334;9.506;2022-09-17T05:02:47;14.30;;;2.22;;
22318;SDS011;11327;52.334;9.506;2022-09-17T05:06:10;12.75;;;2.10;;
22318;SDS011;11327;52.334;9.506;2022-09-17T05:09:31;15.30;;;1.92;;
22318;SDS011;11327;52.334;9.506;2022-09-17T05:12:55;15.18;;;2.40;;
22318;SDS011;11327;52.334;9.506;2022-09-17T05:16:16;10.10;;;2.00;;
22318;SDS011;11327;52.334;9.506;2022-09-17T05:19:37;13.10;;;1.70;;
22318;SDS011;11327;52.334;9.506;2022-09-17T05:22:58;15.40;;;2.50;;
22318;SDS011;11327;52.334;9.506;2022-09-17T05:26:19;14.78;;;1.92;;
22318;SDS011;11327;52.334;9.506;2022-09-17T05:29:41;10.08;;;1.80;;
22318;SDS011;11327;52.334;9.506;2022-09-17T05:33:02;11.10;;;1.75;;
22318;SDS011;11327;52.334;9.506;2022-09-17T05:36:25;12.25;;;2.35;;
22318;SDS011;11327;52.334;9.506;2022-09-17T05:39:46;13.25;;;1.95;;
22318;SDS011;11327;52.334;9.506;2022-09-17T05:43:08;13.70;;;2.33;;
22318;SDS011;11327;52.334;9.506;2022-09-17T05:46:29;11.08;;;2.00;;
22318;SDS011;11327;52.334;9.506;2022-09-17T05:49:50;11.20;;;2.15;;
22318;SDS011;11327;52.334;9.506;2022-09-17T05:53:11;17.32;;;2.45;;
22318;SDS011;11327;52.334;9.506;2022-09-17T05:56:33;13.83;;;3.02;;
22318;SDS011;11327;52.334;9.506;2022-09-17T05:59:54;12.47;;;2.30;;
22318;SDS011;11327;52.334;9.506;2022-09-17T06:03:16;10.88;;;1.87;;
22318;SDS011;11327;52.334;9.506;2022-09-17T06:06:38;9.30;;;1.57;;
22318;SDS011;11327;52.334;9.506;2022-09-17T06:10:01;7.08;;;2.00;;
22318;SDS011;11327;52.334;9.506;2022-09-17T06:13:22;11.25;;;1.90;;
22318;SDS011;11327;52.334;9.506;2022-09-17T06:16:43;11.10;;;2.47;;
22318;SDS011;11327;52.334;9.506;2022-09-17T06:20:05;12.65;;;2.20;;
22318;SDS011;11327;52.334;9.506;2022-09-17T06:23:27;13.53;;;3.00;;
22318;SDS011;11327;52.334;9.506;2022-09-17T06:26:56;10.98;;;2.52;;
22318;SDS011;11327;52.334;9.506;2022-09-17T06:30:17;11.90;;;1.98;;
22318;SDS011;11327;52.334;9.506;2022-09-17T06:33:39;13.08;;;2.15;;
22318;SDS011;11327;52.334;9.506;2022-09-17T06:37:00;13.03;;;2.12;;
22318;SDS011;11327;52.334;9.506;2022-09-17T06:40:21;12.58;;;2.50;;
22318;SDS011;11327;52.334;9.506;2022-09-17T06:43:43;12.53;;;2.05;;
22318;SDS011;11327;52.334;9.506;2022-09-17T06:47:04;9.78;;;1.80;;
22318;SDS011;11327;52.334;9.506;2022-09-17T06:50:25;8.30;;;1.40;;
22318;SDS011;11327;52.334;9.506;2022-09-17T06:53:46;12.40;;;2.65;;
22318;SDS011;11327;52.334;9.506;2022-09-17T06:57:08;10.00;;;2.20;;
22318;SDS011;11327;52.334;9.506;2022-09-17T07:00:29;12.60;;;2.00;;
22318;SDS011;11327;52.334;9.506;2022-09-17T07:03:50;12.40;;;1.82;;
22318;SDS011;11327;52.334;9.506;2022-09-17T07:07:11;10.75;;;1.70;;
22318;SDS011;11327;52.334;9.506;2022-09-17T07:10:32;14.98;;;1.90;;
22318;SDS011;11327;52.334;9.506;2022-09-17T07:13:53;13.10;;;2.12;;
22318;SDS011;11327;52.334;9.506;2022-09-17T07:17:15;10.30;;;1.98;;
22318;SDS011;11327;52.334;9.506;2022-09-17T07:20:36;12.33;;;1.95;;
22318;SDS011;11327;52.334;9.506;2022-09-17T07:23:58;10.95;;;2.52;;
22318;SDS011;11327;52.334;9.506;2022-09-17T07:27:19;11.22;;;1.90;;
22318;SDS011;11327;52.334;9.506;2022-09-17T07:30:41;11.97;;;1.67;;
22318;SDS011;11327;52.334;9.506;2022-09-17T07:34:02;12.13;;;1.87;;
22318;SDS011;11327;52.334;9.506;2022-09-17T07:37:23;15.98;;;3.17;;
22318;SDS011;11327;52.334;9.506;2022-09-17T07:40:51;12.20;;;1.82;;
22318;SDS011;11327;52.334;9.506;2022-09-17T07:44:17;10.63;;;1.75;;
22318;SDS011;11327;52.334;9.506;2022-09-17T07:47:39;10.88;;;1.55;;
22318;SDS011;11327;52.334;9.506;2022-09-17T07:51:00;12.20;;;1.67;;
22318;SDS011;11327;52.334;9.506;2022-09-17T07:54:21;14.28;;;1.98;;
22318;SDS011;11327;52.334;9.506;2022-09-17T07:57:44;8.23;;;1.60;;
22318;SDS011;11327;52.334;9.506;2022-09-17T08:01:08;8.58;;;1.77;;
22318;SDS011;11327;52.334;9.506;2022-09-17T08:04:30;10.25;;;1.25;;
22318;SDS011;11327;52.334;9.506;2022-09-17T08:07:52;8.75;;;1.75;;
22318;SDS011;11327;52.334;9.506;2022-09-17T08:11:16;7.42;;;1.40;;
22318;SDS011;11327;52.334;9.506;2022-09-17T08:14:38;8.48;;;1.50;;
22318;SDS011;11327;52.334;9.506;2022-09-17T08:18:00;7.83;;;1.75;;
22318;SDS011;11327;52.334;9.506;2022-09-17T08:21:21;7.08;;;1.10;;
22318;SDS011;11327;52.334;9.506;2022-09-17T08:24:42;8.50;;;1.60;;
22318;SDS011;11327;52.334;9.506;2022-09-17T08:28:04;11.68;;;1.67;;
22318;SDS011;11327;52.334;9.506;2022-09-17T08:31:25;10.85;;;2.05;;
22318;SDS011;11327;52.334;9.506;2022-09-17T08:34:47;15.25;;;1.75;;
22318;SDS011;11327;52.334;9.506;2022-09-17T08:38:08;8.68;;;1.57;;
22318;SDS011;11327;52.334;9.506;2022-09-17T08:44:57;10.00;;;1.82;;
22318;SDS011;11327;52.334;9.506;2022-09-17T08:48:19;7.15;;;1.30;;
22318;SDS011;11327;52.334;9.506;2022-09-17T09:06:23;6.75;;;1.27;;
22318;SDS011;11327;52.334;9.506;2022-09-17T09:09:54;10.58;;;1.75;;
22318;SDS011;11327;52.334;9.506;2022-09-17T09:13:14;13.70;;;5.33;;
22318;SDS011;11327;52.334;9.506;2022-09-17T09:16:38;11.25;;;1.98;;
22318;SDS011;11327;52.334;9.506;2022-09-17T09:20:02;10.45;;;2.62;;
22318;SDS011;11327;52.334;9.506;2022-09-17T09:26:55;10.55;;;1.67;;
22318;SDS011;11327;52.334;9.506;2022-09-17T09:30:23;8.73;;;1.30;;
22318;SDS011;11327;52.334;9.506;2022-09-17T09:33:46;9.65;;;1.47;;
22318;SDS011;11327;52.334;9.506;2022-09-17T09:37:22;8.08;;;1.55;;
22318;SDS011;11327;52.334;9.506;2022-09-17T09:40:47;8.53;;;1.52;;
22318;SDS011;11327;52.334;9.506;2022-09-17T09:44:28;12.28;;;1.82;;
22318;SDS011;11327;52.334;9.506;2022-09-17T09:47:55;9.33;;;1.40;;
22318;SDS011;11327;52.334;9.506;2022-09-17T09:51:27;7.85;;;1.25;;
22318;SDS011;11327;52.334;9.506;2022-09-17T09:58:36;8.10;;;1.45;;
22318;SDS011;11327;52.334;9.506;2022-09-17T10:01:58;9.43;;;1.52;;
22318;SDS011;11327;52.334;9.506;2022-09-17T10:05:19;7.37;;;1.20;;
22318;SDS011;11327;52.334;9.506;2022-09-17T10:08:41;7.33;;;1.30;;
22318;SDS011;11327;52.334;9.506;2022-09-17T10:15:31;8.18;;;1.17;;
22318;SDS011;11327;52.334;9.506;2022-09-17T10:22:30;12.03;;;1.85;;
22318;SDS011;11327;52.334;9.506;2022-09-17T10:25:53;8.33;;;1.85;;
22318;SDS011;11327;52.334;9.506;2022-09-17T10:29:15;8.10;;;1.27;;
22318;SDS011;11327;52.334;9.506;2022-09-17T10:32:39;5.67;;;1.40;;
22318;SDS011;11327;52.334;9.506;2022-09-17T10:36:07;8.50;;;2.12;;
22318;SDS011;11327;52.334;9.506;2022-09-17T10:39:34;9.78;;;1.62;;
22318;SDS011;11327;52.334;9.506;2022-09-17T10:50:00;7.22;;;1.02;;
22318;SDS011;11327;52.334;9.506;2022-09-17T10:53:23;5.60;;;1.17;;
22318;SDS011;11327;52.334;9.506;2022-09-17T10:56:48;7.62;;;1.35;;
22318;SDS011;11327;52.334;9.506;2022-09-17T11:00:21;6.05;;;1.07;;
22318;SDS011;11327;52.334;9.506;2022-09-17T11:07:32;5.80;;;1.17;;
22318;SDS011;11327;52.334;9.506;2022-09-17T11:14:44;5.58;;;1.00;;
22318;SDS011;11327;52.334;9.506;2022-09-17T11:18:17;6.17;;;1.10;;
22318;SDS011;11327;52.334;9.506;2022-09-17T11:21:55;7.95;;;1.05;;
22318;SDS011;11327;52.334;9.506;2022-09-17T11:33:06;7.08;;;1.10;;
22318;SDS011;11327;52.334;9.506;2022-09-17T11:36:29;7.33;;;1.42;;
22318;SDS011;11327;52.334;9.506;2022-09-17T11:39:53;5.83;;;1.20;;
22318;SDS011;11327;52.334;9.506;2022-09-17T11:43:20;7.58;;;1.02;;
22318;SDS011;11327;52.334;9.506;2022-09-17T11:50:31;6.97;;;1.35;;
22318;SDS011;11327;52.334;9.506;2022-09-17T11:54:13;6.60;;;1.02;;
22318;SDS011;11327;52.334;9.506;2022-09-17T11:57:40;4.95;;;1.12;;
22318;SDS011;11327;52.334;9.506;2022-09-17T12:01:08;6.45;;;1.00;;
22318;SDS011;11327;52.334;9.506;2022-09-17T12:04:46;7.12;;;2.30;;
22318;SDS011;11327;52.334;9.506;2022-09-17T12:11:55;6.20;;;1.10;;
22318;SDS011;11327;52.334;9.506;2022-09-17T12:15:17;8.20;;;1.20;;
22318;SDS011;11327;52.334;9.506;2022-09-17T12:25:41;9.53;;;1.50;;
22318;SDS011;11327;52.334;9.506;2022-09-17T12:47:24;5.40;;;1.02;;
22318;SDS011;11327;52.334;9.506;2022-09-17T13:19:43;7.20;;;1.70;;
22318;SDS011;11327;52.334;9.506;2022-09-17T13:23:29;4.65;;;0.98;;
22318;SDS011;11327;52.334;9.506;2022-09-17T13:26:53;7.33;;;1.00;;
22318;SDS011;11327;52.334;9.506;2022-09-17T13:30:16;4.55;;;0.90;;
22318;SDS011;11327;52.334;9.506;2022-09-17T13:37:18;6.28;;;1.15;;
22318;SDS011;11327;52.334;9.506;2022-09-17T13:40:40;5.42;;;0.88;;
22318;SDS011;11327;52.334;9.506;2022-09-17T13:44:02;4.78;;;0.80;;
22318;SDS011;11327;52.334;9.506;2022-09-17T13:47:26;6.42;;;1.82;;
22318;SDS011;11327;52.334;9.506;2022-09-17T13:50:49;6.35;;;1.55;;
22318;SDS011;11327;52.334;9.506;2022-09-17T13:54:10;5.10;;;1.60;;
22318;SDS011;11327;52.334;9.506;2022-09-17T13:57:33;4.75;;;0.72;;
22318;SDS011;11327;52.334;9.506;2022-09-17T14:01:01;3.50;;;0.80;;
22318;SDS011;11327;52.334;9.506;2022-09-17T14:08:14;6.22;;;1.20;;
22318;SDS011;11327;52.334;9.506;2022-09-17T14:11:38;7.60;;;2.30;;
22318;SDS011;11327;52.334;9.506;2022-09-17T14:14:59;4.45;;;1.42;;
22318;SDS011;11327;52.334;9.506;2022-09-17T14:25:21;7.45;;;2.58;;
22318;SDS011;11327;52.334;9.506;2022-09-17T14:28:56;5.12;;;1.70;;
22318;SDS011;11327;52.334;9.506;2022-09-17T14:36:26;7.90;;;2.00;;
22318;SDS011;11327;52.334;9.506;2022-09-17T14:39:49;7.17;;;1.12;;
22318;SDS011;11327;52.334;9.506;2022-09-17T14:47:07;4.62;;;1.30;;
22318;SDS011;11327;52.334;9.506;2022-09-17T14:50:32;4.92;;;1.20;;
22318;SDS011;11327;52.334;9.506;2022-09-17T14:57:29;4.70;;;0.95;;
22318;SDS011;11327;52.334;9.506;2022-09-17T15:00:51;5.80;;;0.95;;
22318;SDS011;11327;52.334;9.506;2022-09-17T15:07:37;5.22;;;0.80;;
22318;SDS011;11327;52.334;9.506;2022-09-17T15:11:00;6.28;;;1.17;;
22318;SDS011;11327;52.334;9.506;2022-09-17T15:14:26;5.65;;;1.47;;
22318;SDS011;11327;52.334;9.506;2022-09-17T15:17:53;4.65;;;0.93;;
22318;SDS011;11327;52.334;9.506;2022-09-17T15:24:53;5.00;;;1.30;;
22318;SDS011;11327;52.334;9.506;2022-09-17T15:28:24;4.47;;;0.95;;
22318;SDS011;11327;52.334;9.506;2022-09-17T15:31:50;5.80;;;1.37;;
22318;SDS011;11327;52.334;9.506;2022-09-17T15:38:41;7.40;;;1.20;;
22318;SDS011;11327;52.334;9.506;2022-09-17T15:42:04;6.05;;;1.10;;
22318;SDS011;11327;52.334;9.506;2022-09-17T15:45:26;5.08;;;0.90;;
22318;SDS011;11327;52.334;9.506;2022-09-17T15:48:48;4.45;;;1.02;;
22318;SDS011;11327;52.334;9.506;2022-09-17T15:52:29;6.15;;;0.98;;
22318;SDS011;11327;52.334;9.506;2022-09-17T15:59:33;3.05;;;0.88;;
22318;SDS011;11327;52.334;9.506;2022-09-17T16:02:54;2.45;;;0.82;;
22318;SDS011;11327;52.334;9.506;2022-09-17T16:09:50;5.62;;;1.25;;
22318;SDS011;11327;52.334;9.506;2022-09-17T16:13:12;5.72;;;1.20;;
22318;SDS011;11327;52.334;9.506;2022-09-17T16:16:34;4.40;;;1.10;;
22318;SDS011;11327;52.334;9.506;2022-09-17T16:19:56;3.37;;;1.02;;
22318;SDS011;11327;52.334;9.506;2022-09-17T16:23:18;3.83;;;1.27;;
22318;SDS011;11327;52.334;9.506;2022-09-17T16:26:39;7.37;;;3.52;;
22318;SDS011;11327;52.334;9.506;2022-09-17T16:30:02;5.60;;;3.22;;
22318;SDS011;11327;52.334;9.506;2022-09-17T16:33:25;4.95;;;1.22;;
22318;SDS011;11327;52.334;9.506;2022-09-17T16:36:48;5.42;;;1.90;;
22318;SDS011;11327;52.334;9.506;2022-09-17T16:40:10;4.97;;;1.52;;
22318;SDS011;11327;52.334;9.506;2022-09-17T16:43:33;6.20;;;2.08;;
22318;SDS011;11327;52.334;9.506;2022-09-17T16:46:54;8.33;;;5.20;;
22318;SDS011;11327;52.334;9.506;2022-09-17T16:50:16;6.28;;;1.62;;
22318;SDS011;11327;52.334;9.506;2022-09-17T16:53:38;5.30;;;1.45;;
22318;SDS011;11327;52.334;9.506;2022-09-17T16:56:59;3.80;;;1.45;;
22318;SDS011;11327;52.334;9.506;2022-09-17T17:00:21;6.50;;;2.00;;
22318;SDS011;11327;52.334;9.506;2022-09-17T17:03:42;5.97;;;1.85;;
22318;SDS011;11327;52.334;9.506;2022-09-17T17:07:05;7.40;;;1.10;;
22318;SDS011;11327;52.334;9.506;2022-09-17T17:10:26;5.67;;;0.95;;
22318;SDS011;11327;52.334;9.506;2022-09-17T17:13:47;5.67;;;2.25;;
22318;SDS011;11327;52.334;9.506;2022-09-17T17:17:09;4.92;;;1.00;;
22318;SDS011;11327;52.334;9.506;2022-09-17T17:20:30;4.85;;;1.30;;
22318;SDS011;11327;52.334;9.506;2022-09-17T17:23:51;9.13;;;1.20;;
22318;SDS011;11327;52.334;9.506;2022-09-17T17:27:13;7.03;;;1.10;;
22318;SDS011;11327;52.334;9.506;2022-09-17T17:30:34;7.55;;;1.37;;
22318;SDS011;11327;52.334;9.506;2022-09-17T17:33:56;8.75;;;1.32;;
22318;SDS011;11327;52.334;9.506;2022-09-17T17:37:17;8.40;;;1.07;;
22318;SDS011;11327;52.334;9.506;2022-09-17T17:40:38;4.47;;;1.12;;
22318;SDS011;11327;52.334;9.506;2022-09-17T17:43:59;5.83;;;1.37;;
22318;SDS011;11327;52.334;9.506;2022-09-17T17:47:20;7.28;;;1.50;;
22318;SDS011;11327;52.334;9.506;2022-09-17T17:50:41;6.65;;;2.25;;
22318;SDS011;11327;52.334;9.506;2022-09-17T17:54:03;6.65;;;3.80;;
22318;SDS011;11327;52.334;9.506;2022-09-17T17:57:24;8.18;;;2.00;;
22318;SDS011;11327;52.334;9.506;2022-09-17T18:00:45;8.35;;;2.25;;
22318;SDS011;11327;52.334;9.506;2022-09-17T18:04:06;6.90;;;1.90;;
22318;SDS011;11327;52.334;9.506;2022-09-17T18:07:27;7.65;;;1.40;;
22318;SDS011;11327;52.334;9.506;2022-09-17T18:10:57;8.45;;;1.90;;
22318;SDS011;11327;52.334;9.506;2022-09-17T18:14:15;8.40;;;2.00;;
22318;SDS011;11327;52.334;9.506;2022-09-17T18:17:36;9.43;;;1.82;;
22318;SDS011;11327;52.334;9.506;2022-09-17T18:21:01;7.47;;;1.82;;
22318;SDS011;11327;52.334;9.506;2022-09-17T18:24:25;7.85;;;1.80;;
22318;SDS011;11327;52.334;9.506;2022-09-17T18:27:46;8.83;;;1.80;;
22318;SDS011;11327;52.334;9.506;2022-09-17T18:34:48;6.75;;;1.60;;
22318;SDS011;11327;52.334;9.506;2022-09-17T18:38:09;7.33;;;1.90;;
22318;SDS011;11327;52.334;9.506;2022-09-17T18:41:31;9.68;;;2.17;;
22318;SDS011;11327;52.334;9.506;2022-09-17T18:44:53;10.88;;;2.50;;
22318;SDS011;11327;52.334;9.506;2022-09-17T18:48:14;9.75;;;2.15;;
22318;SDS011;11327;52.334;9.506;2022-09-17T18:51:36;6.92;;;2.10;;
22318;SDS011;11327;52.334;9.506;2022-09-17T18:54:57;10.95;;;2.65;;
22318;SDS011;11327;52.334;9.506;2022-09-17T18:58:18;9.80;;;2.77;;
22318;SDS011;11327;52.334;9.506;2022-09-17T19:01:39;12.30;;;4.70;;
22318;SDS011;11327;52.334;9.506;2022-09-17T19:05:00;11.15;;;3.55;;
22318;SDS011;11327;52.334;9.506;2022-09-17T19:08:21;9.10;;;2.58;;
22318;SDS011;11327;52.334;9.506;2022-09-17T19:11:42;8.60;;;2.20;;
22318;SDS011;11327;52.334;9.506;2022-09-17T19:15:04;9.30;;;2.35;;
22318;SDS011;11327;52.334;9.506;2022-09-17T19:18:26;14.33;;;3.55;;
22318;SDS011;11327;52.334;9.506;2022-09-17T19:21:48;13.43;;;3.35;;
22318;SDS011;11327;52.334;9.506;2022-09-17T19:25:10;12.70;;;2.80;;
22318;SDS011;11327;52.334;9.506;2022-09-17T19:28:31;12.58;;;2.80;;
22318;SDS011;11327;52.334;9.506;2022-09-17T19:31:52;11.57;;;2.20;;
22318;SDS011;11327;52.334;9.506;2022-09-17T19:35:13;11.33;;;2.15;;
22318;SDS011;11327;52.334;9.506;2022-09-17T19:38:35;11.88;;;1.80;;
22318;SDS011;11327;52.334;9.506;2022-09-17T19:41:56;6.17;;;2.00;;
22318;SDS011;11327;52.334;9.506;2022-09-17T19:45:17;9.60;;;1.70;;
22318;SDS011;11327;52.334;9.506;2022-09-17T19:48:42;11.33;;;2.55;;
22318;SDS011;11327;52.334;9.506;2022-09-17T19:52:04;9.05;;;1.52;;
22318;SDS011;11327;52.334;9.506;2022-09-17T19:55:25;11.28;;;1.75;;
22318;SDS011;11327;52.334;9.506;2022-09-17T19:58:46;7.95;;;1.52;;
22318;SDS011;11327;52.334;9.506;2022-09-17T20:02:08;8.58;;;1.60;;
22318;SDS011;11327;52.334;9.506;2022-09-17T20:05:35;12.78;;;1.87;;
22318;SDS011;11327;52.334;9.506;2022-09-17T20:08:56;10.30;;;1.60;;
22318;SDS011;11327;52.334;9.506;2022-09-17T20:12:17;13.38;;;1.60;;
22318;SDS011;11327;52.334;9.506;2022-09-17T20:15:38;8.35;;;1.55;;
22318;SDS011;11327;52.334;9.506;2022-09-17T20:19:00;8.53;;;1.57;;
22318;SDS011;11327;52.334;9.506;2022-09-17T20:22:20;11.03;;;1.87;;
22318;SDS011;11327;52.334;9.506;2022-09-17T20:25:42;6.08;;;1.32;;
22318;SDS011;11327;52.334;9.506;2022-09-17T20:29:05;12.03;;;1.70;;
22318;SDS011;11327;52.334;9.506;2022-09-17T20:32:26;8.43;;;1.85;;
22318;SDS011;11327;52.334;9.506;2022-09-17T20:35:47;9.00;;;1.72;;
22318;SDS011;11327;52.334;9.506;2022-09-17T20:39:08;8.35;;;1.50;;
22318;SDS011;11327;52.334;9.506;2022-09-17T20:42:30;10.55;;;1.50;;
22318;SDS011;11327;52.334;9.506;2022-09-17T20:45:52;9.65;;;1.65;;
22318;SDS011;11327;52.334;9.506;2022-09-17T20:49:13;7.10;;;1.37;;
22318;SDS011;11327;52.334;9.506;2022-09-17T20:52:34;10.00;;;1.52;;
22318;SDS011;11327;52.334;9.506;2022-09-17T20:55:56;7.55;;;1.60;;
22318;SDS011;11327;52.334;9.506;2022-09-17T20:59:18;9.73;;;1.40;;
22318;SDS011;11327;52.334;9.506;2022-09-17T21:02:41;6.03;;;1.20;;
22318;SDS011;11327;52.334;9.506;2022-09-17T21:06:04;4.90;;;1.20;;
22318;SDS011;11327;52.334;9.506;2022-09-17T21:09:26;6.87;;;1.27;;
22318;SDS011;11327;52.334;9.506;2022-09-17T21:12:47;8.03;;;1.57;;
22318;SDS011;11327;52.334;9.506;2022-09-17T21:16:08;4.35;;;1.10;;
22318;SDS011;11327;52.334;9.506;2022-09-17T21:19:30;7.20;;;1.30;;
22318;SDS011;11327;52.334;9.506;2022-09-17T21:22:51;8.85;;;1.25;;
22318;SDS011;11327;52.334;9.506;2022-09-17T21:26:17;7.97;;;1.22;;
22318;SDS011;11327;52.334;9.506;2022-09-17T21:29:36;6.85;;;0.90;;
22318;SDS011;11327;52.334;9.506;2022-09-17T21:32:57;9.40;;;1.22;;
22318;SDS011;11327;52.334;9.506;2022-09-17T21:36:20;7.62;;;1.50;;
22318;SDS011;11327;52.334;9.506;2022-09-17T21:39:42;4.70;;;0.93;;
22318;SDS011;11327;52.334;9.506;2022-09-17T21:43:03;7.33;;;1.22;;
22318;SDS011;11327;52.334;9.506;2022-09-17T21:46:27;5.37;;;1.00;;
22318;SDS011;11327;52.334;9.506;2022-09-17T21:49:50;7.33;;;1.00;;
22318;SDS011;11327;52.334;9.506;2022-09-17T21:53:11;7.53;;;1.47;;
22318;SDS011;11327;52.334;9.506;2022-09-17T21:56:32;6.83;;;1.10;;
22318;SDS011;11327;52.334;9.506;2022-09-17T21:59:54;6.67;;;1.12;;
22318;SDS011;11327;52.334;9.506;2022-09-17T22:03:15;5.47;;;1.00;;
22318;SDS011;11327;52.334;9.506;2022-09-17T22:06:36;9.20;;;0.85;;
22318;SDS011;11327;52.334;9.506;2022-09-17T22:09:57;7.55;;;1.12;;
22318;SDS011;11327;52.334;9.506;2022-09-17T22:13:18;8.28;;;1.10;;
22318;SDS011;11327;52.334;9.506;2022-09-17T22:16:40;7.05;;;1.25;;
22318;SDS011;11327;52.334;9.506;2022-09-17T22:20:03;3.87;;;0.80;;
22318;SDS011;11327;52.334;9.506;2022-09-17T22:23:24;7.37;;;1.17;;
22318;SDS011;11327;52.334;9.506;2022-09-17T22:26:47;11.18;;;1.70;;
22318;SDS011;11327;52.334;9.506;2022-09-17T22:30:10;5.37;;;1.07;;
22318;SDS011;11327;52.334;9.506;2022-09-17T22:33:32;7.08;;;1.35;;
22318;SDS011;11327;52.334;9.506;2022-09-17T22:36:54;11.25;;;1.37;;
22318;SDS011;11327;52.334;9.506;2022-09-17T22:40:15;5.55;;;0.85;;
22318;SDS011;11327;52.334;9.506;2022-09-17T22:43:36;4.30;;;0.88;;
22318;SDS011;11327;52.334;9.506;2022-09-17T22:46:57;8.05;;;1.32;;
22318;SDS011;11327;52.334;9.506;2022-09-17T22:50:18;8.65;;;1.07;;
22318;SDS011;11327;52.334;9.506;2022-09-17T22:53:40;8.08;;;1.20;;
22318;SDS011;11327;52.334;9.506;2022-09-17T22:57:01;7.08;;;0.98;;
22318;SDS011;11327;52.334;9.506;2022-09-17T23:00:22;6.92;;;1.27;;
22318;SDS011;11327;52.334;9.506;2022-09-17T23:03:44;8.45;;;1.20;;
22318;SDS011;11327;52.334;9.506;2022-09-17T23:07:06;7.67;;;1.07;;
22318;SDS011;11327;52.334;9.506;2022-09-17T23:10:27;8.03;;;1.37;;
22318;SDS011;11327;52.334;9.506;2022-09-17T23:13:49;5.25;;;0.90;;
22318;SDS011;11327;52.334;9.506;2022-09-17T23:17:10;6.20;;;0.95;;
22318;SDS011;11327;52.334;9.506;2022-09-17T23:20:31;7.45;;;1.10;;
22318;SDS011;11327;52.334;9.506;2022-09-17T23:23:53;8.10;;;1.10;;
22318;SDS011;11327;52.334;9.506;2022-09-17T23:27:14;8.38;;;1.70;;
22318;SDS011;11327;52.334;9.506;2022-09-17T23:30:35;6.03;;;1.02;;
22318;SDS011;11327;52.334;9.506;2022-09-17T23:33:56;6.47;;;0.98;;
22318;SDS011;11327;52.334;9.506;2022-09-17T23:37:18;7.85;;;1.05;;
22318;SDS011;11327;52.334;9.506;2022-09-17T23:40:41;7.95;;;1.32;;
22318;SDS011;11327;52.334;9.506;2022-09-17T23:44:03;6.20;;;1.00;;
22318;SDS011;11327;52.334;9.506;2022-09-17T23:47:26;5.53;;;1.00;;
22318;SDS011;11327;52.334;9.506;2022-09-17T23:50:47;9.60;;;1.77;;